createdAt,value
2022-09-13T00:01:46.157Z,99833.86
2022-09-13T00:04:20.103Z,99830.70
2022-09-13T00:06:46.954Z,99830.32
2022-09-13T00:09:20.667Z,99832.92
2022-09-13T00:11:53.761Z,99830.83
2022-09-13T00:14:27.139Z,99826.65
2022-09-13T00:16:55.965Z,99825.67
2022-09-13T00:19:22.815Z,99825.34
2022-09-13T00:21:50.386Z,99822.00
2022-09-13T00:24:17.643Z,99820.15
2022-09-13T00:26:45.414Z,99816.52
2022-09-13T00:29:12.160Z,99815.98
2022-09-13T00:31:39.540Z,99814.29
2022-09-13T00:34:06.472Z,99814.50
2022-09-13T00:36:33.428Z,99813.14
2022-09-13T00:39:07.548Z,99813.69
2022-09-13T00:41:36.240Z,99807.52
2022-09-13T00:44:04.623Z,99807.05
2022-09-13T00:46:43.081Z,99806.10
2022-09-13T00:49:35.606Z,99806.69
2022-09-13T00:52:11.718Z,99803.32
2022-09-13T00:54:51.611Z,99802.42
2022-09-13T00:57:19.199Z,99799.25
2022-09-13T00:59:56.810Z,99795.89
2022-09-13T01:02:23.690Z,99793.92
2022-09-13T01:05:01.700Z,99796.71
2022-09-13T01:07:32.621Z,99792.66
2022-09-13T01:09:59.986Z,99789.67
2022-09-13T01:12:32.677Z,99791.95
2022-09-13T01:15:02.750Z,99789.63
2022-09-13T01:17:33.445Z,99793.85
2022-09-13T01:20:01.421Z,99795.64
2022-09-13T01:22:54.739Z,99794.55
2022-09-13T01:25:45.913Z,99790.16
2022-09-13T01:28:42.148Z,99782.68
2022-09-13T01:31:30.025Z,99782.05
2022-09-13T01:34:13.974Z,99786.88
2022-09-13T01:36:54.929Z,99780.30
2022-09-13T01:40:00.724Z,99779.95
2022-09-13T01:42:30.820Z,99782.21
2022-09-13T01:45:19.483Z,99781.92
2022-09-13T01:47:57.694Z,99782.88
2022-09-13T01:50:46.866Z,99782.31
2022-09-13T01:53:20.374Z,99780.05
2022-09-13T01:56:28.796Z,99781.63
2022-09-13T01:59:03.532Z,99780.95
2022-09-13T02:01:41.445Z,99779.21
2022-09-13T02:04:26.628Z,99771.56
2022-09-13T02:07:08.823Z,99777.67
2022-09-13T02:09:52.779Z,99774.78
2022-09-13T02:12:29.454Z,99775.65
2022-09-13T02:15:20.837Z,99775.75
2022-09-13T02:17:50.799Z,99775.01
2022-09-13T02:20:25.779Z,99772.63
2022-09-13T02:23:04.762Z,99768.09
2022-09-13T02:25:37.679Z,99770.52
2022-09-13T02:28:13.919Z,99768.70
2022-09-13T02:30:51.735Z,99769.63
2022-09-13T02:33:38.291Z,99770.69
2022-09-13T02:36:16.848Z,99776.50
2022-09-13T02:38:50.884Z,99773.61
2022-09-13T02:41:28.051Z,99773.25
2022-09-13T02:44:24.389Z,99773.59
2022-09-13T02:47:26.874Z,99774.16
2022-09-13T02:50:22.899Z,99770.88
2022-09-13T02:53:08.796Z,99762.11
2022-09-13T02:56:10.869Z,99762.77
2022-09-13T02:59:12.329Z,99765.55
2022-09-13T03:01:54.903Z,99764.31
2022-09-13T03:04:28.961Z,99763.89
2022-09-13T03:06:56.826Z,99761.42
2022-09-13T03:09:42.002Z,99762.30
2022-09-13T03:12:41.411Z,99762.08
2022-09-13T03:15:17.778Z,99760.89
2022-09-13T03:18:20.875Z,99758.95
2022-09-13T03:21:21.513Z,99756.65
2022-09-13T03:24:18.983Z,99754.32
2022-09-13T03:27:11.534Z,99751.83
2022-09-13T03:29:54.554Z,99748.30
2022-09-13T03:33:00.013Z,99750.41
2022-09-13T03:35:38.891Z,99752.39
2022-09-13T03:38:19.908Z,99754.17
2022-09-13T03:40:50.043Z,99753.17
2022-09-13T03:43:39.018Z,99761.48
2022-09-13T03:46:23.174Z,99762.81
2022-09-13T03:49:00.498Z,99761.98
2022-09-13T03:51:30.909Z,99756.99
2022-09-13T03:54:05.089Z,99756.34
2022-09-13T03:56:31.872Z,99754.56
2022-09-13T03:58:58.652Z,99757.39
2022-09-13T04:01:32.821Z,99760.22
2022-09-13T04:04:01.553Z,99761.14
2022-09-13T04:06:35.402Z,99761.70
2022-09-13T04:09:12.566Z,99766.03
2022-09-13T04:11:42.038Z,99765.08
2022-09-13T04:14:16.309Z,99768.11
2022-09-13T04:16:51.050Z,99768.55
2022-09-13T04:19:31.932Z,99771.20
2022-09-13T04:22:06.063Z,99773.98
2022-09-13T04:24:44.963Z,99771.38
2022-09-13T04:27:27.102Z,99772.41
2022-09-13T04:30:07.162Z,99771.08
2022-09-13T04:32:44.047Z,99772.02
2022-09-13T04:35:24.523Z,99773.43
2022-09-13T04:38:04.268Z,99775.73
2022-09-13T04:40:39.412Z,99780.77
2022-09-13T04:43:06.258Z,99778.14
2022-09-13T04:45:35.084Z,99780.23
2022-09-13T04:48:06.113Z,99782.43
2022-09-13T04:50:50.277Z,99781.07
2022-09-13T04:53:18.459Z,99775.68
2022-09-13T04:55:57.290Z,99773.64
2022-09-13T04:58:27.426Z,99771.44
2022-09-13T05:01:09.036Z,99768.66
2022-09-13T05:03:36.822Z,99767.11
2022-09-13T05:06:21.351Z,99767.75
2022-09-13T05:08:55.696Z,99768.30
2022-09-13T05:11:31.114Z,99770.98
2022-09-13T05:13:59.092Z,99772.77
2022-09-13T05:16:34.227Z,99777.49
2022-09-13T05:19:04.962Z,99775.48
2022-09-13T05:21:49.317Z,99776.45
2022-09-13T05:24:17.466Z,99774.29
2022-09-13T05:26:54.266Z,99773.19
2022-09-13T05:29:24.694Z,99774.58
2022-09-13T05:31:51.947Z,99774.48
2022-09-13T05:34:19.712Z,99778.38
2022-09-13T05:37:01.301Z,99777.05
2022-09-13T05:40:00.260Z,99772.48
2022-09-13T05:42:30.492Z,99774.02
2022-09-13T05:44:57.473Z,99772.03
2022-09-13T05:47:24.818Z,99776.80
2022-09-13T05:50:09.224Z,99776.90
2022-09-13T05:52:38.374Z,99779.28
2022-09-13T05:55:05.565Z,99787.02
2022-09-13T05:57:34.104Z,99789.17
2022-09-13T06:00:05.456Z,99784.27
2022-09-13T06:02:37.005Z,99785.12
2022-09-13T06:05:05.493Z,99786.38
2022-09-13T06:07:33.160Z,99786.17
2022-09-13T06:10:09.292Z,99787.33
2022-09-13T06:12:40.255Z,99785.57
2022-09-13T06:15:11.639Z,99789.72
2022-09-13T06:17:45.126Z,99795.57
2022-09-13T06:20:25.159Z,99796.21
2022-09-13T06:22:55.930Z,99802.06
2022-09-13T06:25:29.394Z,99807.09
2022-09-13T06:28:07.094Z,99809.52
2022-09-13T06:30:45.098Z,99812.81
2022-09-13T06:33:22.505Z,99809.38
2022-09-13T06:35:56.202Z,99808.38
2022-09-13T06:38:26.732Z,99809.83
2022-09-13T06:41:02.495Z,99812.27
2022-09-13T06:43:29.538Z,99809.60
2022-09-13T06:46:01.703Z,99809.86
2022-09-13T06:48:33.372Z,99808.77
2022-09-13T06:51:16.765Z,99803.55
2022-09-13T06:54:00.227Z,99801.77
2022-09-13T06:56:42.212Z,99800.29
2022-09-13T06:59:11.736Z,99801.42
2022-09-13T07:01:41.505Z,99801.21
2022-09-13T07:04:10.767Z,99804.09
2022-09-13T07:06:54.486Z,99800.61
2022-09-13T07:09:25.028Z,99796.40
2022-09-13T07:11:56.371Z,99796.69
2022-09-13T07:14:32.969Z,99788.41
2022-09-13T07:17:06.428Z,99789.40
2022-09-13T07:19:33.270Z,99790.16
2022-09-13T07:22:10.250Z,99784.27
2022-09-13T07:24:49.746Z,99786.17
2022-09-13T07:27:18.433Z,99782.34
2022-09-13T07:29:51.975Z,99787.33
2022-09-13T07:32:20.260Z,99787.08
2022-09-13T07:34:55.304Z,99786.52
2022-09-13T07:37:22.974Z,99790.79
2022-09-13T07:39:49.756Z,99792.63
2022-09-13T07:42:30.401Z,99788.34
2022-09-13T07:44:58.681Z,99791.17
2022-09-13T07:47:40.473Z,99796.92
2022-09-13T07:50:09.412Z,99790.23
2022-09-13T07:52:39.527Z,99785.69
2022-09-13T07:55:14.051Z,99790.60
2022-09-13T07:57:41.133Z,99787.39
2022-09-13T08:00:11.015Z,99785.48
2022-09-13T08:02:39.795Z,99786.22
2022-09-13T08:05:07.484Z,99784.73
2022-09-13T08:07:34.410Z,99785.14
2022-09-13T08:10:01.172Z,99772.14
2022-09-13T08:12:28.207Z,99776.53
2022-09-13T08:14:58.538Z,99776.20
2022-09-13T08:17:25.358Z,99775.73
2022-09-13T08:19:52.435Z,99774.52
2022-09-13T08:22:29.425Z,99778.57
2022-09-13T08:24:57.827Z,99772.94
2022-09-13T08:27:24.758Z,99770.86
2022-09-13T08:29:51.594Z,99765.46
2022-09-13T08:32:18.490Z,99767.31
2022-09-13T08:34:49.120Z,99768.23
2022-09-13T08:37:15.996Z,99763.29
2022-09-13T08:39:43.160Z,99763.83
2022-09-13T08:42:44.286Z,99761.45
2022-09-13T08:45:11.299Z,99768.59
2022-09-13T08:47:48.755Z,99762.68
2022-09-13T08:50:21.345Z,99761.96
2022-09-13T08:53:03.460Z,99762.14
2022-09-13T08:55:47.279Z,99757.95
2022-09-13T08:58:35.946Z,99757.88
2022-09-13T09:01:17.421Z,99754.90
2022-09-13T09:03:46.946Z,99754.66
2022-09-13T09:06:18.861Z,99751.71
2022-09-13T09:08:50.011Z,99753.29
2022-09-13T09:11:28.595Z,99751.22
2022-09-13T09:14:02.906Z,99751.55
2022-09-13T09:16:33.839Z,99750.98
2022-09-13T09:19:10.450Z,99751.30
2022-09-13T09:21:38.008Z,99746.98
2022-09-13T09:24:05.001Z,99742.59
2022-09-13T09:26:31.847Z,99741.83
2022-09-13T09:29:10.737Z,99743.89
2022-09-13T09:31:59.332Z,99744.55
2022-09-13T09:34:51.599Z,99742.77
2022-09-13T09:37:27.069Z,99746.20
2022-09-13T09:40:13.770Z,99745.88
2022-09-13T09:42:48.424Z,99745.11
2022-09-13T09:45:30.902Z,99741.25
2022-09-13T09:48:04.951Z,99741.70
2022-09-13T09:50:39.735Z,99750.43
2022-09-13T09:53:14.588Z,99747.81
2022-09-13T09:55:45.833Z,99745.74
2022-09-13T09:58:17.195Z,99744.79
2022-09-13T10:01:02.331Z,99742.52
2022-09-13T10:03:30.142Z,99742.47
2022-09-13T10:06:14.946Z,99742.13
2022-09-13T10:08:42.631Z,99745.58
2022-09-13T10:11:09.706Z,99748.27
2022-09-13T10:13:38.897Z,99746.95
2022-09-13T10:16:08.172Z,99752.30
2022-09-13T10:18:46.369Z,99758.84
2022-09-13T10:21:24.617Z,99772.92
2022-09-13T10:24:24.375Z,99778.52
2022-09-13T10:27:05.590Z,99787.17
2022-09-13T10:29:40.712Z,99786.44
2022-09-13T10:32:19.646Z,99785.02
2022-09-13T10:35:00.149Z,99781.41
2022-09-13T10:37:38.691Z,99778.94
2022-09-13T10:40:29.735Z,99779.03
2022-09-13T10:43:05.286Z,99780.69
2022-09-13T10:45:35.941Z,99776.43
2022-09-13T10:48:27.305Z,99776.80
2022-09-13T10:51:07.574Z,99774.98
2022-09-13T10:53:42.742Z,99771.60
2022-09-13T10:56:22.774Z,99767.93
2022-09-13T10:58:51.340Z,99766.63
2022-09-13T11:02:03.115Z,99762.55
2022-09-13T11:04:52.781Z,99768.20
2022-09-13T11:07:45.926Z,99764.57
2022-09-13T11:10:19.005Z,99757.71
2022-09-13T11:13:17.878Z,99754.30
2022-09-13T11:16:09.319Z,99752.41
2022-09-13T11:18:44.946Z,99755.75
2022-09-13T11:21:43.861Z,99753.39
2022-09-13T11:24:26.495Z,99756.70
2022-09-13T11:27:41.867Z,99761.53
2022-09-13T11:30:30.421Z,99768.05
2022-09-13T11:33:10.249Z,99760.19
2022-09-13T11:35:52.830Z,99766.95
2022-09-13T11:38:38.737Z,99766.65
2022-09-13T11:41:40.974Z,99768.22
2022-09-13T11:44:18.866Z,99768.06
2022-09-13T11:47:09.042Z,99768.20
2022-09-13T11:50:14.573Z,99770.48
2022-09-13T11:53:06.993Z,99771.31
2022-09-13T11:55:34.224Z,99772.05
2022-09-13T11:58:25.954Z,99764.73
2022-09-13T12:00:57.653Z,99768.21
2022-09-13T12:03:40.033Z,99765.18
2022-09-13T12:06:20.020Z,99768.33
2022-09-13T12:08:58.746Z,99770.73
2022-09-13T12:11:42.826Z,99776.39
2022-09-13T12:14:18.456Z,99781.48
2022-09-13T12:16:54.828Z,99782.98
2022-09-13T12:19:32.394Z,99793.71
2022-09-13T12:22:01.511Z,99787.33
2022-09-13T12:24:38.061Z,99789.54
2022-09-13T12:27:34.404Z,99783.52
2022-09-13T12:30:19.652Z,99787.05
2022-09-13T12:32:48.027Z,99786.05
2022-09-13T12:35:35.335Z,99787.44
2022-09-13T12:38:11.143Z,99786.94
2022-09-13T12:40:58.811Z,99787.27
2022-09-13T12:43:36.012Z,99793.02
2022-09-13T12:46:41.121Z,99794.27
2022-09-13T12:49:32.869Z,99805.27
2022-09-13T12:52:15.884Z,99819.48
2022-09-13T12:54:59.512Z,99825.05
2022-09-13T12:57:30.887Z,99828.12
2022-09-13T12:59:57.658Z,99831.51
2022-09-13T13:02:35.263Z,99836.77
2022-09-13T13:05:20.595Z,99839.00
2022-09-13T13:07:52.721Z,99839.21
2022-09-13T13:10:46.127Z,99836.68
2022-09-13T13:13:15.083Z,99836.27
2022-09-13T13:15:47.791Z,99832.02
2022-09-13T13:18:24.787Z,99833.41
2022-09-13T13:20:56.202Z,99831.45
2022-09-13T13:23:31.174Z,99833.98
2022-09-13T13:26:12.041Z,99841.55
2022-09-13T13:28:50.758Z,99840.29
2022-09-13T13:32:08.717Z,99841.34
2022-09-13T13:34:41.735Z,99841.33
2022-09-13T13:37:21.928Z,99838.16
2022-09-13T13:40:25.859Z,99837.27
2022-09-13T13:43:15.897Z,99837.14
2022-09-13T13:45:57.186Z,99838.46
2022-09-13T13:48:46.175Z,99839.98
2022-09-13T13:51:27.191Z,99839.09
2022-09-13T13:54:25.413Z,99835.46
2022-09-13T13:56:52.143Z,99837.46
2022-09-13T13:59:27.433Z,99840.60
2022-09-13T14:01:59.602Z,99838.35
2022-09-13T14:04:55.658Z,99840.17
2022-09-13T14:07:50.905Z,99841.56
2022-09-13T14:10:32.006Z,99835.70
2022-09-13T14:13:28.166Z,99837.83
2022-09-13T14:16:08.453Z,99838.14
2022-09-13T14:18:54.050Z,99842.05
2022-09-13T14:21:27.210Z,99844.70
2022-09-13T14:24:36.071Z,99846.95
2022-09-13T14:27:10.120Z,99848.49
2022-09-13T14:29:37.091Z,99846.91
2022-09-13T14:32:21.239Z,99851.24
2022-09-13T14:34:57.050Z,99857.30
2022-09-13T14:37:29.970Z,99857.10
2022-09-13T14:40:16.633Z,99861.48
2022-09-13T14:42:51.541Z,99861.48
2022-09-13T14:45:40.259Z,99862.67
2022-09-13T14:48:12.463Z,99867.70
2022-09-13T14:50:57.179Z,99870.81
2022-09-13T14:53:28.735Z,99872.25
2022-09-13T14:56:04.143Z,99876.23
2022-09-13T14:59:00.306Z,99878.09
2022-09-13T15:01:43.135Z,99880.48
2022-09-13T15:04:20.280Z,99882.02
2022-09-13T15:06:48.672Z,99883.60
2022-09-13T15:09:27.344Z,99885.42
2022-09-13T15:12:01.401Z,99891.11
2022-09-13T15:14:39.311Z,99892.94
2022-09-13T15:17:06.065Z,99897.56
2022-09-13T15:19:55.304Z,99898.61
2022-09-13T15:22:30.838Z,99898.73
2022-09-13T15:25:00.531Z,99904.27
2022-09-13T15:27:29.477Z,99905.83
2022-09-13T15:30:04.131Z,99911.79
2022-09-13T15:32:51.216Z,99910.88
2022-09-13T15:35:37.442Z,99914.75
2022-09-13T15:38:27.937Z,99914.48
2022-09-13T15:41:16.199Z,99921.77
2022-09-13T15:43:57.440Z,99922.78
2022-09-13T15:46:26.121Z,99920.32
2022-09-13T15:48:59.070Z,99924.74
2022-09-13T15:51:25.972Z,99927.08
2022-09-13T15:53:54.911Z,99928.55
2022-09-13T15:56:33.467Z,99927.04
2022-09-13T15:59:00.379Z,99933.67
2022-09-13T16:01:30.411Z,99938.86
2022-09-13T16:04:06.257Z,99934.44
2022-09-13T16:06:33.321Z,99935.78
2022-09-13T16:09:26.411Z,99941.58
2022-09-13T16:11:59.973Z,99938.83
2022-09-13T16:14:37.363Z,99942.54
2022-09-13T16:17:19.347Z,99945.58
2022-09-13T16:19:53.705Z,99950.02
2022-09-13T16:22:28.023Z,99949.95
2022-09-13T16:25:12.431Z,99952.19
2022-09-13T16:27:45.048Z,99955.02
2022-09-13T16:30:22.967Z,99953.98
2022-09-13T16:32:49.988Z,99956.10
2022-09-13T16:35:19.834Z,99952.39
2022-09-13T16:37:51.453Z,99961.59
2022-09-13T16:40:20.797Z,99962.11
2022-09-13T16:43:01.396Z,99962.72
2022-09-13T16:45:29.367Z,99963.64
2022-09-13T16:48:00.064Z,99963.37
2022-09-13T16:50:34.336Z,99966.29
2022-09-13T16:53:02.693Z,99967.11
2022-09-13T16:55:33.489Z,99974.17
2022-09-13T16:58:00.853Z,99977.85
2022-09-13T17:00:31.082Z,99982.02
2022-09-13T17:03:05.159Z,99984.04
2022-09-13T17:05:40.451Z,99985.80
2022-09-13T17:08:08.700Z,99987.05
2022-09-13T17:10:44.529Z,99992.30
2022-09-13T17:13:14.540Z,99994.20
2022-09-13T17:15:48.221Z,99996.66
2022-09-13T17:18:22.179Z,100002.83
2022-09-13T17:21:05.349Z,100001.58
2022-09-13T17:23:33.570Z,100013.27
2022-09-13T17:26:12.562Z,100013.80
2022-09-13T17:28:46.030Z,100024.67
2022-09-13T17:31:21.115Z,100023.41
2022-09-13T17:33:48.546Z,100025.55
2022-09-13T17:36:32.525Z,100029.83
2022-09-13T17:39:06.190Z,100034.31
2022-09-13T17:41:37.497Z,100039.59
2022-09-13T17:44:04.933Z,100042.98
2022-09-13T17:46:52.598Z,100045.88
2022-09-13T17:49:21.571Z,100046.98
2022-09-13T17:52:05.510Z,100049.35
2022-09-13T17:54:35.531Z,100050.92
2022-09-13T17:57:20.595Z,100051.92
2022-09-13T17:59:55.104Z,100054.77
2022-09-13T18:02:28.487Z,100060.06
2022-09-13T18:05:05.380Z,100064.84
2022-09-13T18:07:42.492Z,100065.17
2022-09-13T18:10:42.717Z,100066.15
2022-09-13T18:13:12.135Z,100069.79
2022-09-13T18:15:39.253Z,100071.02
2022-09-13T18:18:14.608Z,100073.85
2022-09-13T18:20:53.018Z,100072.22
2022-09-13T18:23:32.608Z,100069.58
2022-09-13T18:26:13.582Z,100068.11
2022-09-13T18:28:47.789Z,100074.03
2022-09-13T18:31:24.678Z,100074.46
2022-09-13T18:34:04.460Z,100081.61
2022-09-13T18:36:41.570Z,100078.46
2022-09-13T18:39:10.163Z,100080.34
2022-09-13T18:41:47.595Z,100081.03
2022-09-13T18:44:21.648Z,100079.19
2022-09-13T18:46:57.513Z,100079.48
2022-09-13T18:49:25.659Z,100074.63
2022-09-13T18:51:56.076Z,100072.85
2022-09-13T18:54:36.142Z,100073.56
2022-09-13T18:57:03.221Z,100074.92
2022-09-13T18:59:37.605Z,100071.56
2022-09-13T19:02:10.430Z,100069.96
2022-09-13T19:04:44.171Z,100068.17
2022-09-13T19:07:26.705Z,100071.52
2022-09-13T19:10:06.668Z,100074.84
2022-09-13T19:12:38.605Z,100082.27
2022-09-13T19:15:19.256Z,100084.05
2022-09-13T19:17:50.533Z,100085.10
2022-09-13T19:20:28.408Z,100081.83
2022-09-13T19:23:06.639Z,100075.23
2022-09-13T19:25:42.248Z,100079.24
2022-09-13T19:28:13.158Z,100075.86
2022-09-13T19:30:52.761Z,100074.21
2022-09-13T19:33:29.735Z,100070.96
2022-09-13T19:36:13.340Z,100072.70
2022-09-13T19:38:40.355Z,100077.30
2022-09-13T19:41:16.539Z,100072.78
2022-09-13T19:43:52.628Z,100076.57
2022-09-13T19:46:24.416Z,100074.33
2022-09-13T19:48:59.958Z,100067.49
2022-09-13T19:51:52.316Z,100069.77
2022-09-13T19:54:23.357Z,100072.71
2022-09-13T19:56:52.555Z,100071.80
2022-09-13T19:59:31.622Z,100074.77
2022-09-13T20:02:02.479Z,100072.92
2022-09-13T20:04:30.565Z,100070.96
2022-09-13T20:06:57.488Z,100078.02
2022-09-13T20:09:24.527Z,100080.72
2022-09-13T20:11:52.536Z,100079.91
2022-09-13T20:14:30.409Z,100077.20
2022-09-13T20:16:58.174Z,100071.48
2022-09-13T20:19:47.565Z,100070.09
2022-09-13T20:22:15.554Z,100074.27
2022-09-13T20:24:46.277Z,100074.02
2022-09-13T20:27:13.750Z,100068.08
2022-09-13T20:29:58.687Z,100069.02
2022-09-13T20:32:26.776Z,100070.88
2022-09-13T20:35:01.198Z,100075.73
2022-09-13T20:37:31.823Z,100080.69
2022-09-13T20:40:12.900Z,100079.98
2022-09-13T20:42:39.827Z,100075.22
2022-09-13T20:45:20.683Z,100073.95
2022-09-13T20:47:48.929Z,100076.59
2022-09-13T20:50:33.901Z,100079.23
2022-09-13T20:53:02.815Z,100082.46
2022-09-13T20:55:31.390Z,100079.52
2022-09-13T20:58:08.984Z,100080.61
2022-09-13T21:00:49.552Z,100083.02
2022-09-13T21:03:20.284Z,100082.82
2022-09-13T21:05:59.833Z,100075.02
2022-09-13T21:08:46.911Z,100064.22
2022-09-13T21:11:29.369Z,100060.52
2022-09-13T21:14:08.841Z,100065.18
2022-09-13T21:16:44.017Z,100065.98
2022-09-13T21:19:23.905Z,100067.42
2022-09-13T21:22:04.480Z,100066.98
2022-09-13T21:24:33.268Z,100068.63
2022-09-13T21:27:07.902Z,100069.17
2022-09-13T21:29:47.851Z,100071.40
2022-09-13T21:32:18.383Z,100064.94
2022-09-13T21:34:51.375Z,100066.69
2022-09-13T21:37:25.187Z,100071.67
2022-09-13T21:39:59.566Z,100071.92
2022-09-13T21:42:33.729Z,100073.67
2022-09-13T21:45:14.094Z,100078.38
2022-09-13T21:47:42.177Z,100080.39
2022-09-13T21:50:15.986Z,100079.61
2022-09-13T21:52:49.687Z,100081.02
2022-09-13T21:55:17.971Z,100083.86
2022-09-13T21:57:46.152Z,100088.36
2022-09-13T22:00:29.894Z,100086.48
2022-09-13T22:02:59.198Z,100088.09
2022-09-13T22:05:44.063Z,100088.54
2022-09-13T22:08:11.704Z,100092.52
2022-09-13T22:10:50.969Z,100094.10
2022-09-13T22:13:19.076Z,100094.87
2022-09-13T22:15:52.830Z,100091.84
2022-09-13T22:18:27.803Z,100098.90
2022-09-13T22:21:16.867Z,100102.98
2022-09-13T22:23:50.780Z,100102.10
2022-09-13T22:26:26.980Z,100103.29
2022-09-13T22:28:55.952Z,100104.63
2022-09-13T22:31:26.074Z,100107.67
2022-09-13T22:34:06.953Z,100109.69
2022-09-13T22:36:41.003Z,100106.32
2022-09-13T22:39:16.928Z,100106.90
2022-09-13T22:41:47.151Z,100103.54
2022-09-13T22:44:14.000Z,100103.63
2022-09-13T22:46:48.122Z,100104.29
2022-09-13T22:49:23.262Z,100103.72
2022-09-13T22:52:03.667Z,100107.88
2022-09-13T22:54:41.018Z,100104.41
2022-09-13T22:57:14.420Z,100102.94
2022-09-13T22:59:44.341Z,100102.30
2022-09-13T23:02:24.600Z,100104.35
2022-09-13T23:05:05.162Z,100103.16
2022-09-13T23:07:38.464Z,100103.92
2022-09-13T23:10:07.355Z,100098.30
2022-09-13T23:12:41.039Z,100105.77
2022-09-13T23:15:08.419Z,100104.60
2022-09-13T23:17:41.510Z,100110.27
2022-09-13T23:20:09.686Z,100115.94
2022-09-13T23:22:36.531Z,100114.63
2022-09-13T23:25:11.053Z,100117.23
2022-09-13T23:27:41.175Z,100114.70
2022-09-13T23:30:09.277Z,100121.52
2022-09-13T23:32:42.540Z,100128.11
2022-09-13T23:35:16.553Z,100135.03
2022-09-13T23:37:48.129Z,100138.27
2022-09-13T23:40:15.147Z,100135.01
2022-09-13T23:42:42.100Z,100142.02
2022-09-13T23:45:12.425Z,100139.48
2022-09-13T23:47:59.239Z,100144.58
2022-09-13T23:50:27.413Z,100151.02
2022-09-13T23:53:01.017Z,100150.40
2022-09-13T23:55:29.396Z,100151.52
2022-09-13T23:58:02.898Z,100148.54
